createdAt,value
2019-04-11T00:01:32.570Z,10.30
2019-04-11T00:03:51.950Z,10.30
2019-04-11T00:06:21.414Z,10.30
2019-04-11T00:08:50.971Z,10.30
2019-04-11T00:11:20.542Z,10.30
2019-04-11T00:13:50.210Z,10.20
2019-04-11T00:16:21.409Z,10.20
2019-04-11T00:18:51.405Z,10.20
2019-04-11T00:21:20.889Z,10.30
2019-04-11T00:23:50.560Z,10.20
2019-04-11T00:26:20.215Z,10.20
2019-04-11T00:28:50.099Z,10.10
2019-04-11T00:31:20.894Z,10.00
2019-04-11T00:33:50.820Z,10.10
2019-04-11T00:36:20.385Z,10.10
2019-04-11T00:38:50.004Z,10.10
2019-04-11T00:41:19.703Z,10.10
2019-04-11T00:43:50.362Z,10.10
2019-04-11T00:46:20.397Z,10.10
2019-04-11T00:48:50.335Z,9.90
2019-04-11T00:51:20.928Z,10.10
2019-04-11T00:53:52.061Z,10.10
2019-04-11T00:56:21.671Z,10.10
2019-04-11T00:58:52.051Z,10.10
2019-04-11T01:01:21.900Z,9.90
2019-04-11T01:03:51.608Z,10.00
2019-04-11T01:06:21.100Z,10.00
2019-04-11T01:08:51.566Z,10.00
2019-04-11T01:11:21.596Z,10.00
2019-04-11T01:13:53.933Z,9.90
2019-04-11T01:16:40.856Z,9.50
2019-04-11T01:19:10.832Z,9.80
2019-04-11T01:21:40.524Z,9.90
2019-04-11T01:24:09.963Z,9.90
2019-04-11T01:26:39.392Z,9.70
2019-04-11T01:29:09.254Z,9.50
2019-04-11T01:31:39.908Z,9.70
2019-04-11T01:34:10.545Z,9.50
2019-04-11T01:36:40.057Z,9.70
2019-04-11T01:39:25.206Z,9.70
2019-04-11T01:41:55.551Z,9.60
2019-04-11T01:44:25.132Z,9.40
2019-04-11T01:46:54.672Z,9.40
2019-04-11T01:49:24.268Z,9.10
2019-04-11T01:51:53.964Z,9.50
2019-04-11T01:54:23.737Z,9.40
2019-04-11T01:56:53.704Z,9.50
2019-04-11T01:59:23.620Z,9.40
2019-04-11T02:02:11.482Z,9.30
2019-04-11T02:04:46.145Z,9.50
2019-04-11T02:07:15.560Z,9.30
2019-04-11T02:09:46.279Z,9.20
2019-04-11T02:12:16.272Z,9.40
2019-04-11T02:14:45.932Z,9.50
2019-04-11T02:17:15.406Z,8.90
2019-04-11T02:19:44.885Z,9.00
2019-04-11T02:22:32.722Z,9.30
2019-04-11T02:25:14.265Z,9.50
2019-04-11T02:27:44.276Z,9.40
2019-04-11T02:30:15.659Z,9.00
2019-04-11T02:32:47.019Z,8.80
2019-04-11T02:35:17.808Z,8.50
2019-04-11T02:37:49.876Z,8.50
2019-04-11T02:40:20.222Z,8.70
2019-04-11T02:42:49.875Z,8.10
2019-04-11T02:45:30.855Z,8.70
2019-04-11T02:47:53.936Z,9.20
2019-04-11T02:50:24.243Z,9.20
2019-04-11T02:52:54.259Z,9.30
2019-04-11T02:55:25.191Z,9.10
2019-04-11T02:57:56.681Z,9.00
2019-04-11T03:00:26.756Z,8.90
2019-04-11T03:02:59.203Z,9.00
2019-04-11T03:05:28.901Z,9.20
2019-04-11T03:08:01.138Z,9.10
2019-04-11T03:10:31.386Z,9.20
2019-04-11T03:13:02.932Z,9.30
2019-04-11T03:15:48.750Z,9.40
2019-04-11T03:18:08.684Z,9.30
2019-04-11T03:20:42.281Z,9.00
2019-04-11T03:23:10.129Z,9.10
2019-04-11T03:25:38.549Z,9.30
2019-04-11T03:28:13.557Z,9.10
2019-04-11T03:30:59.109Z,9.30
2019-04-11T03:38:38.604Z,9.40
2019-04-11T03:41:05.997Z,9.30
2019-04-11T03:43:30.189Z,9.20
2019-04-11T03:46:11.997Z,8.90
2019-04-11T03:48:33.496Z,9.20
2019-04-11T03:50:54.503Z,9.10
2019-04-11T03:53:25.372Z,8.90
2019-04-11T03:55:56.134Z,8.70
2019-04-11T03:58:26.099Z,8.90
2019-04-11T04:01:03.293Z,9.10
2019-04-11T04:03:29.508Z,9.20
2019-04-11T04:06:01.764Z,9.20
2019-04-11T04:08:31.571Z,9.20
2019-04-11T04:11:08.629Z,9.20
2019-04-11T04:13:42.727Z,9.10
2019-04-11T04:16:36.352Z,9.00
2019-04-11T04:19:15.705Z,9.00
2019-04-11T04:21:59.435Z,9.00
2019-04-11T04:24:37.748Z,9.00
2019-04-11T04:27:08.802Z,9.10
2019-04-11T04:29:37.758Z,8.90
2019-04-11T04:32:08.354Z,9.10
2019-04-11T04:34:39.956Z,9.10
2019-04-11T04:37:09.607Z,9.10
2019-04-11T04:39:39.926Z,9.00
2019-04-11T04:42:19.438Z,9.00
2019-04-11T04:44:42.360Z,9.00
2019-04-11T04:47:21.097Z,9.00
2019-04-11T04:49:43.709Z,9.00
2019-04-11T04:52:14.410Z,8.70
2019-04-11T04:54:44.400Z,8.70
2019-04-11T04:57:15.473Z,8.90
2019-04-11T04:59:46.813Z,9.00
2019-04-11T05:02:17.823Z,8.90
2019-04-11T05:04:47.878Z,9.00
2019-04-11T05:07:19.244Z,9.00
2019-04-11T05:09:50.434Z,8.90
2019-04-11T05:12:20.680Z,8.90
2019-04-11T05:14:51.821Z,8.90
2019-04-11T05:17:23.140Z,9.00
2019-04-11T05:19:52.747Z,8.90
2019-04-11T05:22:22.463Z,8.90
2019-04-11T05:24:52.212Z,8.30
2019-04-11T05:27:22.755Z,8.70
2019-04-11T05:29:53.475Z,8.80
2019-04-11T05:32:23.960Z,8.80
2019-04-11T05:34:54.198Z,8.80
2019-04-11T05:37:23.816Z,8.90
2019-04-11T05:39:53.505Z,8.90
2019-04-11T05:42:26.704Z,8.80
2019-04-11T05:44:54.778Z,8.80
2019-04-11T05:47:25.521Z,8.80
2019-04-11T05:50:10.093Z,8.80
2019-04-11T05:52:37.747Z,8.80
2019-04-11T05:55:11.747Z,8.80
2019-04-11T05:57:44.906Z,8.70
2019-04-11T06:00:21.497Z,8.80
2019-04-11T06:02:55.528Z,8.80
2019-04-11T06:05:38.842Z,8.70
2019-04-11T06:08:12.569Z,8.70
2019-04-11T06:10:48.496Z,8.70
2019-04-11T06:13:40.647Z,8.60
2019-04-11T06:16:10.834Z,8.60
2019-04-11T06:18:58.817Z,8.70
2019-04-11T06:21:31.957Z,8.60
2019-04-11T06:24:29.692Z,8.60
2019-04-11T06:27:26.989Z,8.70
2019-04-11T06:30:10.697Z,8.60
2019-04-11T06:32:58.370Z,8.60
2019-04-11T06:35:50.397Z,8.60
2019-04-11T06:38:49.139Z,8.60
2019-04-11T06:41:38.866Z,8.60
2019-04-11T06:44:18.318Z,8.60
2019-04-11T06:47:10.361Z,8.60
2019-04-11T06:49:58.641Z,8.50
2019-04-11T06:52:28.765Z,8.40
2019-04-11T06:55:14.882Z,8.60
2019-04-11T06:57:45.919Z,8.60
2019-04-11T07:00:16.952Z,8.50
2019-04-11T07:02:52.926Z,8.50
2019-04-11T07:05:24.610Z,8.50
2019-04-11T07:07:54.275Z,8.50
2019-04-11T07:10:28.628Z,8.50
2019-04-11T07:13:05.621Z,8.50
2019-04-11T07:15:41.381Z,8.50
2019-04-11T07:18:29.141Z,8.40
2019-04-11T07:21:06.629Z,8.50
2019-04-11T07:23:53.610Z,8.50
2019-04-11T07:26:41.607Z,8.20
2019-04-11T07:29:30.158Z,8.40
2019-04-11T07:32:18.058Z,8.40
2019-04-11T07:35:10.834Z,8.40
2019-04-11T07:37:44.901Z,8.40
2019-04-11T07:40:36.882Z,8.40
2019-04-11T07:43:31.284Z,8.40
2019-04-11T07:46:24.262Z,8.40
2019-04-11T07:48:56.798Z,8.40
2019-04-11T07:51:27.936Z,8.40
2019-04-11T07:54:09.236Z,8.40
2019-04-11T07:57:01.623Z,8.30
2019-04-11T07:59:49.097Z,8.30
2019-04-11T08:02:49.533Z,8.20
2019-04-11T08:05:37.177Z,8.30
2019-04-11T08:08:17.730Z,8.30
2019-04-11T08:11:13.493Z,8.30
2019-04-11T08:14:11.127Z,8.40
2019-04-11T08:16:59.676Z,8.20
2019-04-11T08:19:47.068Z,8.30
2019-04-11T08:22:45.485Z,8.40
2019-04-11T08:25:31.412Z,8.30
2019-04-11T08:28:04.869Z,8.40
2019-04-11T08:30:48.964Z,8.30
2019-04-11T08:33:18.472Z,8.30
2019-04-11T08:36:13.730Z,8.30
2019-04-11T08:38:44.604Z,8.10
2019-04-11T08:41:30.005Z,8.20
2019-04-11T08:43:59.618Z,8.00
2019-04-11T08:46:33.309Z,8.00
2019-04-11T08:49:05.639Z,8.10
2019-04-11T08:51:35.733Z,8.20
2019-04-11T08:54:31.402Z,8.30
2019-04-11T08:57:01.276Z,8.30
2019-04-11T08:59:56.061Z,8.10
2019-04-11T09:02:35.944Z,8.30
2019-04-11T09:05:25.449Z,8.20
2019-04-11T09:08:05.828Z,8.30
2019-04-11T09:10:53.184Z,8.40
2019-04-11T09:13:35.613Z,8.50
2019-04-11T09:16:23.695Z,8.50
2019-04-11T09:18:54.714Z,8.30
2019-04-11T09:21:42.479Z,8.40
2019-04-11T09:24:24.194Z,8.30
2019-04-11T09:27:31.180Z,8.40
2019-04-11T09:30:04.505Z,8.50
2019-04-11T09:33:04.712Z,8.60
2019-04-11T09:35:35.348Z,8.40
2019-04-11T09:38:04.933Z,8.50
2019-04-11T09:40:45.163Z,8.70
2019-04-11T09:43:19.953Z,8.70
2019-04-11T09:46:18.473Z,8.60
2019-04-11T09:49:04.388Z,8.70
2019-04-11T09:51:53.087Z,8.80
2019-04-11T09:54:32.254Z,8.50
2019-04-11T09:57:14.855Z,8.80
2019-04-11T09:59:51.765Z,8.90
2019-04-11T10:02:44.314Z,9.00
2019-04-11T10:05:15.937Z,9.10
2019-04-11T10:08:02.191Z,9.20
2019-04-11T10:10:51.154Z,9.20
2019-04-11T10:13:52.923Z,9.40
2019-04-11T10:16:40.611Z,9.40
2019-04-11T10:19:17.882Z,9.50
2019-04-11T10:21:56.438Z,9.50
2019-04-11T10:24:57.248Z,9.30
2019-04-11T10:27:38.766Z,9.30
2019-04-11T10:30:26.571Z,9.50
2019-04-11T10:32:59.460Z,9.60
2019-04-11T10:36:03.285Z,9.60
2019-04-11T10:38:32.930Z,9.70
2019-04-11T10:41:26.250Z,9.70
2019-04-11T10:43:55.753Z,9.70
2019-04-11T10:46:39.644Z,9.80
2019-04-11T10:49:31.054Z,9.70
2019-04-11T10:52:30.719Z,9.80
2019-04-11T10:55:09.398Z,9.80
2019-04-11T10:57:56.884Z,9.90
2019-04-11T11:00:51.514Z,10.10
2019-04-11T11:03:27.322Z,10.10
2019-04-11T11:05:59.747Z,9.90
2019-04-11T11:08:53.954Z,10.20
2019-04-11T11:11:30.859Z,10.30
2019-04-11T11:14:14.721Z,10.20
2019-04-11T11:17:03.000Z,10.20
2019-04-11T11:20:11.959Z,10.30
2019-04-11T11:23:00.150Z,10.30
2019-04-11T11:25:48.386Z,10.40
2019-04-11T11:28:17.922Z,10.70
2019-04-11T11:31:03.194Z,10.70
2019-04-11T11:33:34.117Z,11.10
2019-04-11T11:36:21.615Z,10.70
2019-04-11T11:39:13.542Z,10.70
2019-04-11T11:42:08.328Z,10.90
2019-04-11T11:44:48.831Z,11.30
2019-04-11T11:47:39.780Z,11.40
2019-04-11T11:50:15.551Z,11.20
2019-04-11T11:52:57.848Z,11.40
2019-04-11T11:55:31.535Z,11.40
2019-04-11T11:58:25.978Z,11.90
2019-04-11T12:00:57.830Z,11.90
2019-04-11T12:03:48.801Z,12.10
2019-04-11T12:06:22.247Z,12.10
2019-04-11T12:09:08.097Z,12.10
2019-04-11T12:11:39.975Z,12.10
2019-04-11T12:14:27.596Z,12.00
2019-04-11T12:17:14.495Z,12.30
2019-04-11T12:20:05.428Z,12.30
2019-04-11T12:22:30.599Z,12.30
2019-04-11T12:25:22.904Z,12.00
2019-04-11T12:28:13.132Z,12.00
2019-04-11T12:30:46.033Z,11.90
2019-04-11T12:33:33.406Z,11.50
2019-04-11T12:36:07.914Z,11.80
2019-04-11T12:39:02.576Z,11.90
2019-04-11T12:41:39.887Z,11.90
2019-04-11T12:44:37.274Z,11.70
2019-04-11T12:47:24.080Z,11.80
2019-04-11T12:50:30.987Z,11.70
2019-04-11T12:53:11.712Z,11.80
2019-04-11T12:55:50.904Z,11.80
2019-04-11T12:58:46.641Z,11.80
2019-04-11T13:01:43.914Z,11.50
2019-04-11T13:04:33.207Z,11.60
2019-04-11T13:07:33.784Z,11.80
2019-04-11T13:10:19.157Z,11.70
2019-04-11T13:13:19.675Z,11.40
2019-04-11T13:15:58.573Z,10.80
2019-04-11T13:18:59.122Z,10.90
2019-04-11T13:21:33.565Z,10.70
2019-04-11T13:24:22.463Z,10.90
2019-04-11T13:27:26.047Z,11.10
2019-04-11T13:30:17.321Z,10.90
2019-04-11T13:33:11.759Z,10.80
2019-04-11T13:35:57.857Z,11.00
2019-04-11T13:38:32.598Z,10.70
2019-04-11T13:41:20.408Z,10.90
2019-04-11T13:43:59.773Z,11.10
2019-04-11T13:46:48.170Z,11.00
2019-04-11T13:49:36.830Z,11.10
2019-04-11T13:52:28.497Z,10.90
2019-04-11T13:55:27.142Z,11.10
2019-04-11T13:58:14.426Z,10.90
2019-04-11T14:00:51.161Z,11.10
2019-04-11T14:03:48.654Z,11.40
2019-04-11T14:06:23.551Z,11.70
2019-04-11T14:09:12.083Z,11.60
2019-04-11T14:11:44.857Z,11.50
2019-04-11T14:14:42.865Z,11.50
2019-04-11T14:17:46.311Z,11.70
2019-04-11T14:20:35.025Z,11.30
2019-04-11T14:23:24.170Z,11.20
2019-04-11T14:26:12.942Z,11.20
2019-04-11T14:28:48.614Z,11.20
2019-04-11T14:31:53.840Z,11.50
2019-04-11T14:34:41.269Z,11.30
2019-04-11T14:37:19.727Z,11.30
2019-04-11T14:39:51.765Z,11.30
2019-04-11T14:42:50.779Z,11.40
2019-04-11T14:45:36.618Z,11.30
2019-04-11T14:48:18.638Z,11.20
2019-04-11T14:51:19.093Z,11.00
2019-04-11T14:53:55.351Z,11.20
2019-04-11T14:56:27.173Z,11.30
2019-04-11T14:59:30.456Z,11.40
2019-04-11T15:02:07.359Z,10.80
2019-04-11T15:05:08.043Z,10.90
2019-04-11T15:07:38.013Z,11.00
2019-04-11T15:10:38.872Z,11.00
2019-04-11T15:13:09.790Z,11.20
2019-04-11T15:15:58.193Z,11.10
2019-04-11T15:18:27.636Z,11.30
2019-04-11T15:21:15.040Z,11.30
2019-04-11T15:23:47.545Z,11.00
2019-04-11T15:26:36.587Z,10.70
2019-04-11T15:29:17.667Z,10.70
2019-04-11T15:32:06.064Z,10.90
2019-04-11T15:34:40.448Z,10.60
2019-04-11T15:37:46.997Z,10.70
2019-04-11T15:40:19.848Z,10.70
2019-04-11T15:43:12.322Z,10.70
2019-04-11T15:46:01.349Z,10.60
2019-04-11T15:49:02.045Z,10.40
2019-04-11T15:51:56.706Z,10.80
2019-04-11T15:54:45.258Z,10.80
2019-04-11T15:57:36.748Z,10.60
2019-04-11T16:00:28.758Z,10.50
2019-04-11T16:03:10.042Z,10.60
2019-04-11T16:06:07.404Z,10.40
2019-04-11T16:08:43.615Z,10.90
2019-04-11T16:11:34.892Z,10.30
2019-04-11T16:14:23.279Z,10.50
2019-04-11T16:17:13.763Z,10.30
2019-04-11T16:19:50.912Z,10.40
2019-04-11T16:22:38.289Z,10.30
2019-04-11T16:25:29.135Z,9.90
2019-04-11T16:28:15.715Z,10.40
2019-04-11T16:30:50.609Z,10.40
2019-04-11T16:33:46.087Z,10.20
2019-04-11T16:36:22.207Z,10.00
2019-04-11T16:39:09.454Z,10.00
2019-04-11T16:41:56.657Z,10.10
2019-04-11T16:44:39.111Z,10.30
2019-04-11T16:47:37.978Z,10.40
2019-04-11T16:50:07.511Z,9.90
2019-04-11T16:52:38.570Z,9.90
2019-04-11T16:55:10.066Z,9.70
2019-04-11T16:57:43.895Z,9.90
2019-04-11T17:00:12.697Z,10.10
2019-04-11T17:02:42.200Z,9.90
2019-04-11T17:05:11.887Z,10.10
2019-04-11T17:07:58.862Z,9.90
2019-04-11T17:10:45.905Z,9.90
2019-04-11T17:13:15.388Z,10.10
2019-04-11T17:15:44.841Z,10.10
2019-04-11T17:18:14.308Z,9.90
2019-04-11T17:20:43.750Z,9.60
2019-04-11T17:23:13.237Z,9.80
2019-04-11T17:25:42.687Z,9.90
2019-04-11T17:28:12.143Z,10.10
2019-04-11T17:30:41.633Z,9.70
2019-04-11T17:33:11.143Z,9.90
2019-04-11T17:35:42.434Z,9.60
2019-04-11T17:38:11.847Z,9.50
2019-04-11T17:40:41.369Z,9.40
2019-04-11T17:43:13.659Z,9.70
2019-04-11T17:45:41.991Z,10.00
2019-04-11T17:48:11.456Z,10.20
2019-04-11T17:50:40.996Z,9.90
2019-04-11T17:53:10.572Z,10.00
2019-04-11T17:55:40.022Z,9.80
2019-04-11T17:58:09.535Z,10.00
2019-04-11T18:00:41.118Z,9.50
2019-04-11T18:03:12.490Z,10.00
2019-04-11T18:05:41.965Z,10.10
2019-04-11T18:08:11.520Z,10.10
2019-04-11T18:10:40.972Z,9.90
2019-04-11T18:13:10.526Z,9.70
2019-04-11T18:15:39.973Z,9.70
2019-04-11T18:18:09.879Z,9.90
2019-04-11T18:20:39.354Z,10.10
2019-04-11T18:23:08.852Z,10.00
2019-04-11T18:25:38.301Z,10.20
2019-04-11T18:28:08.247Z,9.90
2019-04-11T18:30:37.666Z,9.50
2019-04-11T18:33:08.089Z,9.50
2019-04-11T18:35:37.933Z,9.20
2019-04-11T18:38:07.383Z,9.40
2019-04-11T18:40:37.991Z,9.30
2019-04-11T18:43:07.969Z,9.60
2019-04-11T18:45:37.455Z,9.70
2019-04-11T18:48:07.119Z,9.40
2019-04-11T18:50:36.628Z,9.70
2019-04-11T18:53:06.145Z,10.00
2019-04-11T18:55:35.608Z,9.40
2019-04-11T18:58:05.265Z,9.70
2019-04-11T19:00:35.798Z,9.40
2019-04-11T19:03:08.141Z,9.30
2019-04-11T19:05:37.089Z,9.80
2019-04-11T19:08:06.523Z,9.60
2019-04-11T19:10:36.080Z,9.60
2019-04-11T19:13:05.625Z,10.00
2019-04-11T19:15:35.088Z,10.00
2019-04-11T19:18:06.565Z,9.70
2019-04-11T19:20:35.774Z,9.90
2019-04-11T19:23:07.763Z,9.80
2019-04-11T19:25:36.342Z,9.60
2019-04-11T19:28:05.883Z,9.80
2019-04-11T19:30:35.346Z,9.70
2019-04-11T19:33:04.797Z,9.60
2019-04-11T19:35:34.253Z,9.60
2019-04-11T19:38:04.007Z,9.60
2019-04-11T19:40:33.475Z,9.50
2019-04-11T19:43:02.921Z,9.60
2019-04-11T19:45:32.420Z,9.70
2019-04-11T19:48:01.931Z,9.80
2019-04-11T19:50:31.372Z,9.80
2019-04-11T19:53:02.888Z,9.50
2019-04-11T19:55:47.603Z,9.50
2019-04-11T19:58:18.830Z,8.80
2019-04-11T20:00:53.166Z,9.00
2019-04-11T20:03:19.385Z,9.30
2019-04-11T20:05:48.852Z,9.10
2019-04-11T20:08:18.326Z,8.80
2019-04-11T20:10:47.930Z,9.00
2019-04-11T20:13:17.349Z,9.30
2019-04-11T20:15:46.808Z,9.10
2019-04-11T20:18:16.339Z,9.20
2019-04-11T20:20:45.863Z,9.20
2019-04-11T20:23:15.314Z,9.20
2019-04-11T20:25:48.999Z,8.90
2019-04-11T20:28:15.934Z,8.60
2019-04-11T20:30:45.422Z,7.80
2019-04-11T20:33:26.373Z,7.90
2019-04-11T20:35:46.308Z,7.90
2019-04-11T20:38:16.729Z,8.60
2019-04-11T20:40:47.041Z,8.90
2019-04-11T20:43:17.015Z,8.90
2019-04-11T20:45:46.485Z,8.30
2019-04-11T20:48:15.922Z,8.60
2019-04-11T20:50:45.497Z,8.50
2019-04-11T20:53:14.937Z,8.10
2019-04-11T20:55:44.385Z,8.40
2019-04-11T20:58:13.871Z,8.80
2019-04-11T21:00:50.325Z,8.60
2019-04-11T21:03:14.436Z,8.40
2019-04-11T21:05:43.853Z,8.70
2019-04-11T21:08:13.317Z,8.60
2019-04-11T21:10:42.753Z,8.70
2019-04-11T21:13:12.216Z,8.20
2019-04-11T21:15:41.662Z,8.50
2019-04-11T21:18:11.218Z,8.80
2019-04-11T21:20:40.678Z,8.50
2019-04-11T21:23:10.181Z,8.60
2019-04-11T21:25:39.629Z,8.30
2019-04-11T21:28:09.101Z,8.40
2019-04-11T21:30:38.568Z,8.70
2019-04-11T21:33:08.033Z,8.60
2019-04-11T21:35:37.463Z,8.50
2019-04-11T21:38:06.937Z,8.90
2019-04-11T21:40:36.632Z,8.70
2019-04-11T21:43:06.779Z,8.20
2019-04-11T21:45:36.566Z,8.60
2019-04-11T21:48:06.972Z,8.40
2019-04-11T21:50:40.300Z,8.20
2019-04-11T21:53:07.615Z,8.70
2019-04-11T21:55:37.110Z,8.30
2019-04-11T21:58:06.646Z,8.30
2019-04-11T22:00:39.706Z,7.80
2019-04-11T22:03:10.238Z,8.30
2019-04-11T22:05:40.050Z,7.70
2019-04-11T22:08:09.534Z,8.30
2019-04-11T22:10:40.475Z,8.30
2019-04-11T22:13:10.815Z,8.50
2019-04-11T22:15:42.439Z,8.50
2019-04-11T22:18:15.907Z,8.30
2019-04-11T22:20:45.183Z,8.30
2019-04-11T22:23:13.676Z,8.60
2019-04-11T22:25:43.114Z,8.60
2019-04-11T22:28:12.810Z,8.50
2019-04-11T22:30:42.248Z,8.60
2019-04-11T22:33:33.663Z,8.70
2019-04-11T22:36:03.157Z,8.50
2019-04-11T22:38:32.609Z,8.60
2019-04-11T22:41:02.761Z,8.70
2019-04-11T22:43:32.236Z,8.70
2019-04-11T22:46:01.660Z,8.70
2019-04-11T22:48:31.135Z,8.70
2019-04-11T22:51:00.617Z,8.70
2019-04-11T22:53:30.124Z,8.60
2019-04-11T22:55:59.581Z,8.70
2019-04-11T22:58:29.095Z,8.60
2019-04-11T23:00:58.530Z,8.70
2019-04-11T23:03:36.253Z,8.50
2019-04-11T23:06:05.711Z,8.40
2019-04-11T23:08:35.248Z,8.50
2019-04-11T23:11:04.820Z,8.00
2019-04-11T23:13:34.283Z,7.90
2019-04-11T23:16:03.713Z,7.60
2019-04-11T23:18:33.288Z,7.20
2019-04-11T23:21:02.738Z,6.80
2019-04-11T23:23:32.175Z,6.40
2019-04-11T23:26:01.630Z,6.50
2019-04-11T23:28:31.078Z,7.20
2019-04-11T23:31:00.552Z,6.60
2019-04-11T23:33:29.984Z,6.40
2019-04-11T23:35:59.453Z,6.30
2019-04-11T23:38:28.900Z,6.80
2019-04-11T23:40:58.370Z,6.50
2019-04-11T23:43:27.829Z,7.00
2019-04-11T23:45:57.228Z,6.70
2019-04-11T23:48:26.720Z,7.00
2019-04-11T23:50:56.189Z,6.40
2019-04-11T23:53:28.126Z,6.40
2019-04-11T23:55:59.876Z,6.30
2019-04-11T23:58:31.881Z,6.80
